sensor_id;sensor_type;location;lat;lon;timestamp;P1;durP1;ratioP1;P2;durP2;ratioP2
25449;SDS011;13371;52.080;5.624;2023-04-23T00:00:48;56.05;;;25.58;;
25449;SDS011;13371;52.080;5.624;2023-04-23T00:03:15;62.17;;;24.67;;
25449;SDS011;13371;52.080;5.624;2023-04-23T00:05:43;59.95;;;24.42;;
25449;SDS011;13371;52.080;5.624;2023-04-23T00:08:09;57.40;;;24.58;;
25449;SDS011;13371;52.080;5.624;2023-04-23T00:10:35;55.38;;;24.63;;
25449;SDS011;13371;52.080;5.624;2023-04-23T00:13:01;54.38;;;25.02;;
25449;SDS011;13371;52.080;5.624;2023-04-23T00:15:28;51.08;;;23.73;;
25449;SDS011;13371;52.080;5.624;2023-04-23T00:17:54;57.00;;;25.25;;
25449;SDS011;13371;52.080;5.624;2023-04-23T00:20:20;59.83;;;24.67;;
25449;SDS011;13371;52.080;5.624;2023-04-23T00:22:46;57.25;;;23.27;;
25449;SDS011;13371;52.080;5.624;2023-04-23T00:25:12;64.45;;;26.38;;
25449;SDS011;13371;52.080;5.624;2023-04-23T00:27:38;55.35;;;24.25;;
25449;SDS011;13371;52.080;5.624;2023-04-23T00:30:04;55.00;;;25.10;;
25449;SDS011;13371;52.080;5.624;2023-04-23T00:32:30;59.33;;;25.65;;
25449;SDS011;13371;52.080;5.624;2023-04-23T00:34:56;56.70;;;24.58;;
25449;SDS011;13371;52.080;5.624;2023-04-23T00:37:22;58.67;;;25.05;;
25449;SDS011;13371;52.080;5.624;2023-04-23T00:39:47;60.88;;;25.92;;
25449;SDS011;13371;52.080;5.624;2023-04-23T00:42:13;60.08;;;25.02;;
25449;SDS011;13371;52.080;5.624;2023-04-23T00:44:41;65.05;;;26.83;;
25449;SDS011;13371;52.080;5.624;2023-04-23T00:47:06;53.13;;;24.55;;
25449;SDS011;13371;52.080;5.624;2023-04-23T00:49:32;57.30;;;24.17;;
25449;SDS011;13371;52.080;5.624;2023-04-23T00:51:58;56.55;;;25.25;;
25449;SDS011;13371;52.080;5.624;2023-04-23T00:54:27;59.80;;;24.95;;
25449;SDS011;13371;52.080;5.624;2023-04-23T00:56:53;60.58;;;25.17;;
25449;SDS011;13371;52.080;5.624;2023-04-23T00:59:20;50.60;;;25.13;;
25449;SDS011;13371;52.080;5.624;2023-04-23T01:01:46;54.15;;;24.42;;
25449;SDS011;13371;52.080;5.624;2023-04-23T01:04:13;55.08;;;25.52;;
25449;SDS011;13371;52.080;5.624;2023-04-23T01:06:41;58.22;;;23.92;;
25449;SDS011;13371;52.080;5.624;2023-04-23T01:09:08;49.58;;;23.33;;
25449;SDS011;13371;52.080;5.624;2023-04-23T01:11:41;52.72;;;24.23;;
25449;SDS011;13371;52.080;5.624;2023-04-23T01:14:08;60.08;;;24.35;;
25449;SDS011;13371;52.080;5.624;2023-04-23T01:16:34;58.75;;;22.80;;
25449;SDS011;13371;52.080;5.624;2023-04-23T01:19:02;52.40;;;22.67;;
25449;SDS011;13371;52.080;5.624;2023-04-23T01:21:29;49.28;;;21.95;;
25449;SDS011;13371;52.080;5.624;2023-04-23T01:23:56;62.28;;;25.60;;
25449;SDS011;13371;52.080;5.624;2023-04-23T01:26:23;51.85;;;22.98;;
25449;SDS011;13371;52.080;5.624;2023-04-23T01:28:49;53.40;;;22.92;;
25449;SDS011;13371;52.080;5.624;2023-04-23T01:31:16;54.20;;;24.00;;
25449;SDS011;13371;52.080;5.624;2023-04-23T01:33:43;64.30;;;25.25;;
25449;SDS011;13371;52.080;5.624;2023-04-23T01:36:09;58.15;;;23.80;;
25449;SDS011;13371;52.080;5.624;2023-04-23T01:38:35;54.35;;;24.55;;
25449;SDS011;13371;52.080;5.624;2023-04-23T01:41:02;57.85;;;24.95;;
25449;SDS011;13371;52.080;5.624;2023-04-23T01:43:28;59.05;;;25.20;;
25449;SDS011;13371;52.080;5.624;2023-04-23T01:45:56;55.38;;;24.35;;
25449;SDS011;13371;52.080;5.624;2023-04-23T01:48:22;53.47;;;24.20;;
25449;SDS011;13371;52.080;5.624;2023-04-23T01:50:49;55.72;;;24.60;;
25449;SDS011;13371;52.080;5.624;2023-04-23T01:53:16;59.53;;;24.92;;
25449;SDS011;13371;52.080;5.624;2023-04-23T01:55:42;47.42;;;23.13;;
25449;SDS011;13371;52.080;5.624;2023-04-23T01:58:10;54.95;;;24.90;;
25449;SDS011;13371;52.080;5.624;2023-04-23T02:00:36;54.17;;;22.02;;
25449;SDS011;13371;52.080;5.624;2023-04-23T02:03:02;52.88;;;22.33;;
25449;SDS011;13371;52.080;5.624;2023-04-23T02:05:27;46.85;;;22.30;;
25449;SDS011;13371;52.080;5.624;2023-04-23T02:07:54;53.13;;;22.95;;
25449;SDS011;13371;52.080;5.624;2023-04-23T02:10:20;45.38;;;21.83;;
25449;SDS011;13371;52.080;5.624;2023-04-23T02:12:46;54.55;;;22.83;;
25449;SDS011;13371;52.080;5.624;2023-04-23T02:15:12;52.50;;;21.90;;
25449;SDS011;13371;52.080;5.624;2023-04-23T02:17:39;55.13;;;22.85;;
25449;SDS011;13371;52.080;5.624;2023-04-23T02:20:09;52.75;;;22.20;;
25449;SDS011;13371;52.080;5.624;2023-04-23T02:22:38;51.55;;;22.27;;
25449;SDS011;13371;52.080;5.624;2023-04-23T02:25:05;46.65;;;20.08;;
25449;SDS011;13371;52.080;5.624;2023-04-23T02:27:32;56.85;;;21.10;;
25449;SDS011;13371;52.080;5.624;2023-04-23T02:29:58;53.47;;;21.70;;
25449;SDS011;13371;52.080;5.624;2023-04-23T02:32:24;49.35;;;22.40;;
25449;SDS011;13371;52.080;5.624;2023-04-23T02:34:50;47.33;;;22.05;;
25449;SDS011;13371;52.080;5.624;2023-04-23T02:37:16;53.05;;;22.65;;
25449;SDS011;13371;52.080;5.624;2023-04-23T02:39:41;49.50;;;21.63;;
25449;SDS011;13371;52.080;5.624;2023-04-23T02:42:07;50.00;;;22.38;;
25449;SDS011;13371;52.080;5.624;2023-04-23T02:44:33;47.67;;;22.40;;
25449;SDS011;13371;52.080;5.624;2023-04-23T02:46:59;48.45;;;22.45;;
25449;SDS011;13371;52.080;5.624;2023-04-23T02:49:25;50.60;;;22.35;;
25449;SDS011;13371;52.080;5.624;2023-04-23T02:51:50;51.30;;;21.40;;
25449;SDS011;13371;52.080;5.624;2023-04-23T02:54:16;52.35;;;21.98;;
25449;SDS011;13371;52.080;5.624;2023-04-23T02:56:42;53.75;;;21.60;;
25449;SDS011;13371;52.080;5.624;2023-04-23T02:59:07;47.88;;;21.90;;
25449;SDS011;13371;52.080;5.624;2023-04-23T03:01:33;39.58;;;19.30;;
25449;SDS011;13371;52.080;5.624;2023-04-23T03:03:59;48.25;;;20.67;;
25449;SDS011;13371;52.080;5.624;2023-04-23T03:06:25;46.97;;;22.20;;
25449;SDS011;13371;52.080;5.624;2023-04-23T03:08:51;46.67;;;20.73;;
25449;SDS011;13371;52.080;5.624;2023-04-23T03:11:16;57.08;;;21.65;;
25449;SDS011;13371;52.080;5.624;2023-04-23T03:13:42;46.22;;;20.67;;
25449;SDS011;13371;52.080;5.624;2023-04-23T03:16:07;47.63;;;21.00;;
25449;SDS011;13371;52.080;5.624;2023-04-23T03:18:33;45.15;;;21.15;;
25449;SDS011;13371;52.080;5.624;2023-04-23T03:20:59;43.45;;;20.00;;
25449;SDS011;13371;52.080;5.624;2023-04-23T03:23:25;50.33;;;21.52;;
25449;SDS011;13371;52.080;5.624;2023-04-23T03:25:50;46.17;;;20.85;;
25449;SDS011;13371;52.080;5.624;2023-04-23T03:28:16;45.42;;;19.45;;
25449;SDS011;13371;52.080;5.624;2023-04-23T03:30:41;43.42;;;20.80;;
25449;SDS011;13371;52.080;5.624;2023-04-23T03:33:07;42.55;;;20.40;;
25449;SDS011;13371;52.080;5.624;2023-04-23T03:35:33;41.65;;;20.45;;
25449;SDS011;13371;52.080;5.624;2023-04-23T03:37:58;42.13;;;19.58;;
25449;SDS011;13371;52.080;5.624;2023-04-23T03:40:24;45.20;;;19.65;;
25449;SDS011;13371;52.080;5.624;2023-04-23T03:42:50;42.22;;;18.92;;
25449;SDS011;13371;52.080;5.624;2023-04-23T03:45:15;40.05;;;18.80;;
25449;SDS011;13371;52.080;5.624;2023-04-23T03:47:41;36.58;;;18.48;;
25449;SDS011;13371;52.080;5.624;2023-04-23T03:50:08;38.33;;;18.25;;
25449;SDS011;13371;52.080;5.624;2023-04-23T03:52:34;42.13;;;19.98;;
25449;SDS011;13371;52.080;5.624;2023-04-23T03:55:00;38.35;;;17.85;;
25449;SDS011;13371;52.080;5.624;2023-04-23T03:57:26;38.58;;;17.27;;
25449;SDS011;13371;52.080;5.624;2023-04-23T03:59:51;41.42;;;20.23;;
25449;SDS011;13371;52.080;5.624;2023-04-23T04:02:18;38.50;;;19.67;;
25449;SDS011;13371;52.080;5.624;2023-04-23T04:04:44;38.95;;;18.27;;
25449;SDS011;13371;52.080;5.624;2023-04-23T04:07:10;35.55;;;16.38;;
25449;SDS011;13371;52.080;5.624;2023-04-23T04:09:36;37.05;;;16.30;;
25449;SDS011;13371;52.080;5.624;2023-04-23T04:12:03;34.28;;;16.13;;
25449;SDS011;13371;52.080;5.624;2023-04-23T04:14:29;45.10;;;18.52;;
25449;SDS011;13371;52.080;5.624;2023-04-23T04:16:56;34.33;;;17.15;;
25449;SDS011;13371;52.080;5.624;2023-04-23T04:19:25;32.35;;;15.02;;
25449;SDS011;13371;52.080;5.624;2023-04-23T04:21:50;41.35;;;18.48;;
25449;SDS011;13371;52.080;5.624;2023-04-23T04:24:16;35.15;;;16.52;;
25449;SDS011;13371;52.080;5.624;2023-04-23T04:26:42;35.65;;;17.67;;
25449;SDS011;13371;52.080;5.624;2023-04-23T04:29:09;37.33;;;16.65;;
25449;SDS011;13371;52.080;5.624;2023-04-23T04:31:35;35.60;;;16.55;;
25449;SDS011;13371;52.080;5.624;2023-04-23T04:34:01;27.05;;;14.70;;
25449;SDS011;13371;52.080;5.624;2023-04-23T04:36:27;40.45;;;17.92;;
25449;SDS011;13371;52.080;5.624;2023-04-23T04:38:52;32.92;;;15.60;;
25449;SDS011;13371;52.080;5.624;2023-04-23T04:41:22;29.67;;;14.45;;
25449;SDS011;13371;52.080;5.624;2023-04-23T04:43:52;37.30;;;16.20;;
25449;SDS011;13371;52.080;5.624;2023-04-23T04:46:22;36.03;;;16.90;;
25449;SDS011;13371;52.080;5.624;2023-04-23T04:48:49;34.70;;;17.23;;
25449;SDS011;13371;52.080;5.624;2023-04-23T04:51:15;30.70;;;15.02;;
25449;SDS011;13371;52.080;5.624;2023-04-23T04:53:41;37.17;;;16.65;;
25449;SDS011;13371;52.080;5.624;2023-04-23T04:56:06;33.83;;;16.92;;
25449;SDS011;13371;52.080;5.624;2023-04-23T04:58:32;30.63;;;16.00;;
25449;SDS011;13371;52.080;5.624;2023-04-23T05:00:58;32.90;;;15.65;;
25449;SDS011;13371;52.080;5.624;2023-04-23T05:03:25;35.35;;;14.82;;
25449;SDS011;13371;52.080;5.624;2023-04-23T05:05:51;34.15;;;16.67;;
25449;SDS011;13371;52.080;5.624;2023-04-23T05:08:20;32.17;;;15.85;;
25449;SDS011;13371;52.080;5.624;2023-04-23T05:10:46;36.22;;;17.13;;
25449;SDS011;13371;52.080;5.624;2023-04-23T05:13:11;30.10;;;14.77;;
25449;SDS011;13371;52.080;5.624;2023-04-23T05:15:37;38.92;;;16.92;;
25449;SDS011;13371;52.080;5.624;2023-04-23T05:18:03;32.40;;;16.63;;
25449;SDS011;13371;52.080;5.624;2023-04-23T05:20:29;32.35;;;16.85;;
25449;SDS011;13371;52.080;5.624;2023-04-23T05:22:55;32.70;;;16.42;;
25449;SDS011;13371;52.080;5.624;2023-04-23T05:25:23;33.50;;;17.05;;
25449;SDS011;13371;52.080;5.624;2023-04-23T05:27:49;34.92;;;17.23;;
25449;SDS011;13371;52.080;5.624;2023-04-23T05:30:15;34.90;;;17.73;;
25449;SDS011;13371;52.080;5.624;2023-04-23T05:32:41;33.00;;;15.38;;
25449;SDS011;13371;52.080;5.624;2023-04-23T05:35:07;28.35;;;14.90;;
25449;SDS011;13371;52.080;5.624;2023-04-23T05:37:33;32.95;;;16.73;;
25449;SDS011;13371;52.080;5.624;2023-04-23T05:39:59;30.95;;;16.00;;
25449;SDS011;13371;52.080;5.624;2023-04-23T05:42:24;27.63;;;15.68;;
25449;SDS011;13371;52.080;5.624;2023-04-23T05:44:50;31.23;;;16.05;;
25449;SDS011;13371;52.080;5.624;2023-04-23T05:47:16;29.98;;;16.55;;
25449;SDS011;13371;52.080;5.624;2023-04-23T05:49:41;32.95;;;15.43;;
25449;SDS011;13371;52.080;5.624;2023-04-23T05:52:07;31.48;;;15.13;;
25449;SDS011;13371;52.080;5.624;2023-04-23T05:54:32;28.25;;;14.98;;
25449;SDS011;13371;52.080;5.624;2023-04-23T05:56:58;27.83;;;14.35;;
25449;SDS011;13371;52.080;5.624;2023-04-23T05:59:24;40.45;;;17.02;;
25449;SDS011;13371;52.080;5.624;2023-04-23T06:01:50;37.03;;;15.73;;
25449;SDS011;13371;52.080;5.624;2023-04-23T06:04:16;30.77;;;15.82;;
25449;SDS011;13371;52.080;5.624;2023-04-23T06:06:42;31.85;;;17.42;;
25449;SDS011;13371;52.080;5.624;2023-04-23T06:09:07;32.42;;;16.10;;
25449;SDS011;13371;52.080;5.624;2023-04-23T06:11:33;32.08;;;17.17;;
25449;SDS011;13371;52.080;5.624;2023-04-23T06:14:00;30.48;;;15.07;;
25449;SDS011;13371;52.080;5.624;2023-04-23T06:16:26;29.40;;;17.17;;
25449;SDS011;13371;52.080;5.624;2023-04-23T06:18:52;32.40;;;16.42;;
25449;SDS011;13371;52.080;5.624;2023-04-23T06:21:19;27.50;;;16.10;;
25449;SDS011;13371;52.080;5.624;2023-04-23T06:23:46;32.92;;;16.90;;
25449;SDS011;13371;52.080;5.624;2023-04-23T06:26:11;31.25;;;16.02;;
25449;SDS011;13371;52.080;5.624;2023-04-23T06:28:37;34.40;;;16.05;;
25449;SDS011;13371;52.080;5.624;2023-04-23T06:31:03;28.48;;;16.15;;
25449;SDS011;13371;52.080;5.624;2023-04-23T06:33:29;26.25;;;14.93;;
25449;SDS011;13371;52.080;5.624;2023-04-23T06:35:55;29.77;;;15.38;;
25449;SDS011;13371;52.080;5.624;2023-04-23T06:38:21;27.45;;;15.82;;
25449;SDS011;13371;52.080;5.624;2023-04-23T06:40:47;24.33;;;14.30;;
25449;SDS011;13371;52.080;5.624;2023-04-23T06:43:13;28.67;;;13.93;;
25449;SDS011;13371;52.080;5.624;2023-04-23T06:45:38;22.48;;;13.23;;
25449;SDS011;13371;52.080;5.624;2023-04-23T06:48:04;27.48;;;15.52;;
25449;SDS011;13371;52.080;5.624;2023-04-23T06:50:30;26.92;;;14.50;;
25449;SDS011;13371;52.080;5.624;2023-04-23T06:52:56;21.45;;;13.45;;
25449;SDS011;13371;52.080;5.624;2023-04-23T06:55:21;25.52;;;13.77;;
25449;SDS011;13371;52.080;5.624;2023-04-23T06:57:50;25.17;;;13.13;;
25449;SDS011;13371;52.080;5.624;2023-04-23T07:00:17;24.92;;;13.65;;
25449;SDS011;13371;52.080;5.624;2023-04-23T07:02:43;24.45;;;13.52;;
25449;SDS011;13371;52.080;5.624;2023-04-23T07:05:08;23.20;;;12.57;;
25449;SDS011;13371;52.080;5.624;2023-04-23T07:07:34;20.75;;;12.18;;
25449;SDS011;13371;52.080;5.624;2023-04-23T07:10:01;22.92;;;13.15;;
25449;SDS011;13371;52.080;5.624;2023-04-23T07:12:28;21.67;;;11.07;;
25449;SDS011;13371;52.080;5.624;2023-04-23T07:14:53;24.17;;;12.45;;
25449;SDS011;13371;52.080;5.624;2023-04-23T07:17:20;20.25;;;11.45;;
25449;SDS011;13371;52.080;5.624;2023-04-23T07:19:45;20.27;;;10.85;;
25449;SDS011;13371;52.080;5.624;2023-04-23T07:22:11;18.83;;;10.68;;
25449;SDS011;13371;52.080;5.624;2023-04-23T07:24:37;18.63;;;10.25;;
25449;SDS011;13371;52.080;5.624;2023-04-23T07:27:03;15.32;;;9.80;;
25449;SDS011;13371;52.080;5.624;2023-04-23T07:29:29;17.45;;;10.02;;
25449;SDS011;13371;52.080;5.624;2023-04-23T07:31:55;16.77;;;9.80;;
25449;SDS011;13371;52.080;5.624;2023-04-23T07:34:21;16.65;;;10.77;;
25449;SDS011;13371;52.080;5.624;2023-04-23T07:36:47;17.40;;;9.80;;
25449;SDS011;13371;52.080;5.624;2023-04-23T07:39:13;13.30;;;8.50;;
25449;SDS011;13371;52.080;5.624;2023-04-23T07:41:39;13.30;;;9.05;;
25449;SDS011;13371;52.080;5.624;2023-04-23T07:44:05;10.80;;;7.22;;
25449;SDS011;13371;52.080;5.624;2023-04-23T07:46:30;12.52;;;8.10;;
25449;SDS011;13371;52.080;5.624;2023-04-23T07:48:56;13.27;;;8.10;;
25449;SDS011;13371;52.080;5.624;2023-04-23T07:51:22;10.73;;;7.70;;
25449;SDS011;13371;52.080;5.624;2023-04-23T07:53:50;10.85;;;7.03;;
25449;SDS011;13371;52.080;5.624;2023-04-23T07:56:20;9.82;;;7.03;;
25449;SDS011;13371;52.080;5.624;2023-04-23T07:58:46;11.82;;;7.05;;
25449;SDS011;13371;52.080;5.624;2023-04-23T08:01:12;16.65;;;7.53;;
25449;SDS011;13371;52.080;5.624;2023-04-23T08:03:38;11.38;;;7.45;;
25449;SDS011;13371;52.080;5.624;2023-04-23T08:06:03;10.75;;;6.55;;
25449;SDS011;13371;52.080;5.624;2023-04-23T08:08:29;10.20;;;6.60;;
25449;SDS011;13371;52.080;5.624;2023-04-23T08:10:55;8.90;;;6.35;;
25449;SDS011;13371;52.080;5.624;2023-04-23T08:13:20;8.10;;;4.68;;
25449;SDS011;13371;52.080;5.624;2023-04-23T08:15:46;14.18;;;4.88;;
25449;SDS011;13371;52.080;5.624;2023-04-23T08:18:13;11.20;;;5.93;;
25449;SDS011;13371;52.080;5.624;2023-04-23T08:20:39;9.10;;;5.53;;
25449;SDS011;13371;52.080;5.624;2023-04-23T08:23:05;11.23;;;5.15;;
25449;SDS011;13371;52.080;5.624;2023-04-23T08:25:31;9.70;;;5.38;;
25449;SDS011;13371;52.080;5.624;2023-04-23T08:27:57;10.40;;;5.22;;
25449;SDS011;13371;52.080;5.624;2023-04-23T08:30:22;12.63;;;5.07;;
25449;SDS011;13371;52.080;5.624;2023-04-23T08:32:49;7.43;;;4.30;;
25449;SDS011;13371;52.080;5.624;2023-04-23T08:35:17;10.82;;;4.28;;
25449;SDS011;13371;52.080;5.624;2023-04-23T08:37:43;8.82;;;4.65;;
25449;SDS011;13371;52.080;5.624;2023-04-23T08:40:09;10.98;;;4.38;;
25449;SDS011;13371;52.080;5.624;2023-04-23T08:42:57;9.63;;;4.57;;
25449;SDS011;13371;52.080;5.624;2023-04-23T08:45:21;10.13;;;4.60;;
25449;SDS011;13371;52.080;5.624;2023-04-23T08:47:47;8.85;;;4.15;;
25449;SDS011;13371;52.080;5.624;2023-04-23T08:50:14;8.93;;;3.88;;
25449;SDS011;13371;52.080;5.624;2023-04-23T08:52:53;7.95;;;4.57;;
25449;SDS011;13371;52.080;5.624;2023-04-23T08:55:20;6.47;;;3.88;;
25449;SDS011;13371;52.080;5.624;2023-04-23T08:57:47;8.45;;;3.70;;
25449;SDS011;13371;52.080;5.624;2023-04-23T09:00:14;5.95;;;3.45;;
25449;SDS011;13371;52.080;5.624;2023-04-23T09:02:50;6.38;;;3.25;;
25449;SDS011;13371;52.080;5.624;2023-04-23T09:05:16;9.75;;;3.70;;
25449;SDS011;13371;52.080;5.624;2023-04-23T09:07:42;11.20;;;3.35;;
25449;SDS011;13371;52.080;5.624;2023-04-23T09:10:09;7.97;;;3.90;;
25449;SDS011;13371;52.080;5.624;2023-04-23T09:12:37;7.72;;;3.03;;
25449;SDS011;13371;52.080;5.624;2023-04-23T09:15:04;11.70;;;3.92;;
25449;SDS011;13371;52.080;5.624;2023-04-23T09:17:34;8.63;;;3.60;;
25449;SDS011;13371;52.080;5.624;2023-04-23T09:20:01;7.05;;;3.88;;
25449;SDS011;13371;52.080;5.624;2023-04-23T09:22:37;8.45;;;3.25;;
25449;SDS011;13371;52.080;5.624;2023-04-23T09:25:06;7.97;;;3.58;;
25449;SDS011;13371;52.080;5.624;2023-04-23T09:27:33;6.03;;;3.53;;
25449;SDS011;13371;52.080;5.624;2023-04-23T09:30:01;6.45;;;3.22;;
25449;SDS011;13371;52.080;5.624;2023-04-23T09:32:36;8.30;;;2.97;;
25449;SDS011;13371;52.080;5.624;2023-04-23T09:35:03;5.43;;;2.58;;
25449;SDS011;13371;52.080;5.624;2023-04-23T09:37:29;7.10;;;2.53;;
25449;SDS011;13371;52.080;5.624;2023-04-23T09:39:59;6.30;;;3.22;;
25449;SDS011;13371;52.080;5.624;2023-04-23T09:42:28;9.05;;;3.25;;
25449;SDS011;13371;52.080;5.624;2023-04-23T09:45:04;8.50;;;3.15;;
25449;SDS011;13371;52.080;5.624;2023-04-23T09:47:32;4.85;;;2.53;;
25449;SDS011;13371;52.080;5.624;2023-04-23T09:50:04;9.13;;;2.73;;
25449;SDS011;13371;52.080;5.624;2023-04-23T09:52:31;4.63;;;2.03;;
25449;SDS011;13371;52.080;5.624;2023-04-23T09:55:00;7.22;;;1.95;;
25449;SDS011;13371;52.080;5.624;2023-04-23T09:57:26;6.93;;;2.10;;
25449;SDS011;13371;52.080;5.624;2023-04-23T09:59:52;11.63;;;2.88;;
25449;SDS011;13371;52.080;5.624;2023-04-23T10:02:25;9.60;;;3.25;;
25449;SDS011;13371;52.080;5.624;2023-04-23T10:04:51;7.88;;;1.95;;
25449;SDS011;13371;52.080;5.624;2023-04-23T10:07:17;4.78;;;1.90;;
25449;SDS011;13371;52.080;5.624;2023-04-23T10:09:44;5.05;;;2.00;;
25449;SDS011;13371;52.080;5.624;2023-04-23T10:12:09;5.35;;;1.35;;
25449;SDS011;13371;52.080;5.624;2023-04-23T10:14:35;5.15;;;1.20;;
25449;SDS011;13371;52.080;5.624;2023-04-23T10:17:03;3.58;;;1.15;;
25449;SDS011;13371;52.080;5.624;2023-04-23T10:19:30;8.32;;;1.75;;
25449;SDS011;13371;52.080;5.624;2023-04-23T10:21:57;7.78;;;1.70;;
25449;SDS011;13371;52.080;5.624;2023-04-23T10:24:28;6.30;;;2.05;;
25449;SDS011;13371;52.080;5.624;2023-04-23T10:26:57;4.05;;;1.20;;
25449;SDS011;13371;52.080;5.624;2023-04-23T10:29:32;5.05;;;1.20;;
25449;SDS011;13371;52.080;5.624;2023-04-23T10:31:59;7.85;;;1.73;;
25449;SDS011;13371;52.080;5.624;2023-04-23T10:34:29;4.25;;;1.30;;
25449;SDS011;13371;52.080;5.624;2023-04-23T10:36:57;3.28;;;1.17;;
25449;SDS011;13371;52.080;5.624;2023-04-23T10:39:29;8.35;;;1.13;;
25449;SDS011;13371;52.080;5.624;2023-04-23T10:41:56;8.13;;;1.35;;
25449;SDS011;13371;52.080;5.624;2023-04-23T10:44:27;6.05;;;1.35;;
25449;SDS011;13371;52.080;5.624;2023-04-23T10:46:57;4.05;;;1.25;;
25449;SDS011;13371;52.080;5.624;2023-04-23T10:49:28;4.20;;;1.30;;
25449;SDS011;13371;52.080;5.624;2023-04-23T10:52:28;7.38;;;1.30;;
25449;SDS011;13371;52.080;5.624;2023-04-23T10:54:47;4.15;;;1.30;;
25449;SDS011;13371;52.080;5.624;2023-04-23T10:57:20;6.50;;;1.42;;
25449;SDS011;13371;52.080;5.624;2023-04-23T10:59:55;4.90;;;1.20;;
25449;SDS011;13371;52.080;5.624;2023-04-23T11:02:41;7.38;;;1.52;;
25449;SDS011;13371;52.080;5.624;2023-04-23T11:05:08;1.83;;;0.80;;
25449;SDS011;13371;52.080;5.624;2023-04-23T11:07:34;5.68;;;1.42;;
25449;SDS011;13371;52.080;5.624;2023-04-23T11:10:09;6.75;;;1.33;;
25449;SDS011;13371;52.080;5.624;2023-04-23T11:12:37;7.47;;;1.77;;
25449;SDS011;13371;52.080;5.624;2023-04-23T11:15:13;3.13;;;1.08;;
25449;SDS011;13371;52.080;5.624;2023-04-23T11:22:50;1.80;;;0.90;;
25449;SDS011;13371;52.080;5.624;2023-04-23T11:25:26;3.97;;;0.98;;
25449;SDS011;13371;52.080;5.624;2023-04-23T11:27:54;8.32;;;1.17;;
25449;SDS011;13371;52.080;5.624;2023-04-23T11:30:23;2.42;;;0.80;;
25449;SDS011;13371;52.080;5.624;2023-04-23T11:32:55;5.00;;;1.10;;
25449;SDS011;13371;52.080;5.624;2023-04-23T11:35:24;2.88;;;0.95;;
25449;SDS011;13371;52.080;5.624;2023-04-23T11:37:54;2.28;;;0.70;;
25449;SDS011;13371;52.080;5.624;2023-04-23T11:40:20;7.57;;;0.98;;
25449;SDS011;13371;52.080;5.624;2023-04-23T11:42:48;2.72;;;0.80;;
25449;SDS011;13371;52.080;5.624;2023-04-23T11:47:40;0.73;;;0.45;;
25449;SDS011;13371;52.080;5.624;2023-04-23T11:50:07;2.35;;;0.98;;
25449;SDS011;13371;52.080;5.624;2023-04-23T11:52:33;3.25;;;0.93;;
25449;SDS011;13371;52.080;5.624;2023-04-23T11:55:02;1.85;;;0.70;;
25449;SDS011;13371;52.080;5.624;2023-04-23T11:57:30;7.88;;;1.27;;
25449;SDS011;13371;52.080;5.624;2023-04-23T11:59:59;3.50;;;0.90;;
25449;SDS011;13371;52.080;5.624;2023-04-23T12:02:27;5.57;;;1.25;;
25449;SDS011;13371;52.080;5.624;2023-04-23T12:04:53;2.60;;;0.82;;
25449;SDS011;13371;52.080;5.624;2023-04-23T12:07:20;2.10;;;0.88;;
25449;SDS011;13371;52.080;5.624;2023-04-23T12:09:59;1.58;;;0.77;;
25449;SDS011;13371;52.080;5.624;2023-04-23T12:12:31;4.90;;;1.00;;
25449;SDS011;13371;52.080;5.624;2023-04-23T12:15:03;4.93;;;1.10;;
25449;SDS011;13371;52.080;5.624;2023-04-23T12:17:31;2.60;;;0.90;;
25449;SDS011;13371;52.080;5.624;2023-04-23T12:19:56;4.75;;;0.95;;
25449;SDS011;13371;52.080;5.624;2023-04-23T12:22:26;7.97;;;1.45;;
25449;SDS011;13371;52.080;5.624;2023-04-23T12:24:52;4.57;;;0.85;;
25449;SDS011;13371;52.080;5.624;2023-04-23T12:27:19;3.42;;;1.30;;
25449;SDS011;13371;52.080;5.624;2023-04-23T12:29:48;4.72;;;1.70;;
25449;SDS011;13371;52.080;5.624;2023-04-23T12:32:23;9.50;;;1.20;;
25449;SDS011;13371;52.080;5.624;2023-04-23T12:34:54;3.90;;;1.10;;
25449;SDS011;13371;52.080;5.624;2023-04-23T12:37:24;2.33;;;0.80;;
25449;SDS011;13371;52.080;5.624;2023-04-23T12:39:50;1.58;;;0.65;;
25449;SDS011;13371;52.080;5.624;2023-04-23T12:42:17;4.15;;;0.65;;
25449;SDS011;13371;52.080;5.624;2023-04-23T12:44:43;4.78;;;1.05;;
25449;SDS011;13371;52.080;5.624;2023-04-23T12:47:09;3.45;;;0.95;;
25449;SDS011;13371;52.080;5.624;2023-04-23T12:49:36;2.13;;;0.70;;
25449;SDS011;13371;52.080;5.624;2023-04-23T12:52:06;5.95;;;0.93;;
25449;SDS011;13371;52.080;5.624;2023-04-23T12:54:33;2.42;;;1.13;;
25449;SDS011;13371;52.080;5.624;2023-04-23T12:57:04;7.68;;;0.98;;
25449;SDS011;13371;52.080;5.624;2023-04-23T12:59:31;3.03;;;0.88;;
25449;SDS011;13371;52.080;5.624;2023-04-23T13:01:57;2.45;;;0.95;;
25449;SDS011;13371;52.080;5.624;2023-04-23T13:04:26;5.35;;;1.10;;
25449;SDS011;13371;52.080;5.624;2023-04-23T13:06:52;6.53;;;1.40;;
25449;SDS011;13371;52.080;5.624;2023-04-23T13:09:18;6.57;;;1.52;;
25449;SDS011;13371;52.080;5.624;2023-04-23T13:11:45;4.32;;;1.35;;
25449;SDS011;13371;52.080;5.624;2023-04-23T13:14:13;4.65;;;1.60;;
25449;SDS011;13371;52.080;5.624;2023-04-23T13:16:39;4.03;;;1.02;;
25449;SDS011;13371;52.080;5.624;2023-04-23T13:19:08;2.45;;;1.10;;
25449;SDS011;13371;52.080;5.624;2023-04-23T13:21:34;3.25;;;1.00;;
25449;SDS011;13371;52.080;5.624;2023-04-23T13:24:00;3.38;;;1.50;;
25449;SDS011;13371;52.080;5.624;2023-04-23T13:26:26;1.08;;;0.50;;
25449;SDS011;13371;52.080;5.624;2023-04-23T13:28:56;4.95;;;0.90;;
25449;SDS011;13371;52.080;5.624;2023-04-23T13:31:21;5.28;;;1.00;;
25449;SDS011;13371;52.080;5.624;2023-04-23T13:33:47;2.75;;;0.80;;
25449;SDS011;13371;52.080;5.624;2023-04-23T13:36:13;1.73;;;0.73;;
25449;SDS011;13371;52.080;5.624;2023-04-23T13:38:38;8.80;;;1.45;;
25449;SDS011;13371;52.080;5.624;2023-04-23T13:41:04;2.00;;;0.80;;
25449;SDS011;13371;52.080;5.624;2023-04-23T13:43:30;4.28;;;1.00;;
25449;SDS011;13371;52.080;5.624;2023-04-23T13:45:55;2.55;;;0.77;;
25449;SDS011;13371;52.080;5.624;2023-04-23T13:48:21;1.85;;;0.88;;
25449;SDS011;13371;52.080;5.624;2023-04-23T13:50:52;2.92;;;1.20;;
25449;SDS011;13371;52.080;5.624;2023-04-23T13:53:18;2.25;;;0.70;;
25449;SDS011;13371;52.080;5.624;2023-04-23T13:55:44;6.00;;;1.60;;
25449;SDS011;13371;52.080;5.624;2023-04-23T13:58:10;3.70;;;0.85;;
25449;SDS011;13371;52.080;5.624;2023-04-23T14:00:35;4.82;;;0.80;;
25449;SDS011;13371;52.080;5.624;2023-04-23T14:03:01;6.15;;;1.27;;
25449;SDS011;13371;52.080;5.624;2023-04-23T14:05:27;2.30;;;0.88;;
25449;SDS011;13371;52.080;5.624;2023-04-23T14:07:52;3.15;;;0.77;;
25449;SDS011;13371;52.080;5.624;2023-04-23T14:10:18;4.93;;;1.50;;
25449;SDS011;13371;52.080;5.624;2023-04-23T14:12:44;2.22;;;0.80;;
25449;SDS011;13371;52.080;5.624;2023-04-23T14:15:12;0.95;;;0.57;;
25449;SDS011;13371;52.080;5.624;2023-04-23T14:17:38;3.95;;;1.00;;
25449;SDS011;13371;52.080;5.624;2023-04-23T14:20:06;4.35;;;1.02;;
25449;SDS011;13371;52.080;5.624;2023-04-23T14:22:33;2.92;;;0.80;;
25449;SDS011;13371;52.080;5.624;2023-04-23T14:25:02;4.32;;;0.95;;
25449;SDS011;13371;52.080;5.624;2023-04-23T14:27:38;4.30;;;1.00;;
25449;SDS011;13371;52.080;5.624;2023-04-23T14:30:13;1.20;;;0.73;;
25449;SDS011;13371;52.080;5.624;2023-04-23T14:32:45;5.82;;;1.08;;
25449;SDS011;13371;52.080;5.624;2023-04-23T14:35:12;5.78;;;1.20;;
25449;SDS011;13371;52.080;5.624;2023-04-23T14:37:38;3.60;;;0.98;;
25449;SDS011;13371;52.080;5.624;2023-04-23T14:40:08;5.20;;;0.93;;